Time;durP1;ratioP1;P1;durP2;ratioP2;P2;SDS_P1;SDS_P2;PMS_P1;PMS_P2;Temp;Humidity;BMP_temperature;BMP_pressure;BME280_temperature;BME280_humidity;BME280_pressure;Samples;Min_cycle;Max_cycle;Signal;HPM_P1;HPM_P2
2021/07/30 00:02:42;;;;;;;;;;;15.50;99.90;;;;;;6097046;29;19938;-80
2021/07/30 00:05:42;;;;;;;;;;;15.40;99.90;;;;;;6098241;29;19903;-79
2021/07/30 00:08:43;;;;;;;;;;;15.50;99.90;;;;;;6097937;29;19919;-79
2021/07/30 00:11:43;;;;;;;;;;;15.50;99.90;;;;;;6179786;28;20261;-79
2021/07/30 00:14:44;;;;;;;;;;;15.50;99.90;;;;;;6180061;28;19993;-80
2021/07/30 00:17:44;;;;;;;;;;;15.40;99.90;;;;;;6162973;28;19974;-80
2021/07/30 00:20:45;;;;;;;;;;;15.40;99.90;;;;;;6097898;29;19930;-80
2021/07/30 00:23:45;;;;;;;;;;;15.40;99.90;;;;;;6179305;28;19911;-80
2021/07/30 00:26:46;;;;;;;;;;;13.90;99.90;;;;;;6096618;29;20369;-80
2021/07/30 00:29:46;;;;;;;;;;;15.20;99.90;;;;;;6179336;28;19911;-79
2021/07/30 00:32:47;;;;;;;;;;;15.20;99.90;;;;;;6081655;29;19970;-80
2021/07/30 00:35:47;;;;;;;;;;;15.10;99.90;;;;;;6073992;29;19911;-80
2021/07/30 00:38:48;;;;;;;;;;;15.10;99.90;;;;;;6075123;29;19910;-79
2021/07/30 00:41:48;;;;;;;;;;;15.10;99.90;;;;;;6075436;29;19918;-80
2021/07/30 00:44:49;;;;;;;;;;;15.10;99.90;;;;;;6075433;29;20062;-80
2021/07/30 00:47:49;;;;;;;;;;;15.10;99.90;;;;;;6094117;29;19911;-80
2021/07/30 00:50:50;;;;;;;;;;;15.20;99.90;;;;;;6162430;28;20386;-79
2021/07/30 00:53:50;;;;;;;;;;;15.00;99.90;;;;;;6097400;29;19925;-79
2021/07/30 00:56:52;;;;;;;;;;;14.90;99.90;;;;;;6091535;29;20403;-79
2021/07/30 00:59:52;;;;;;;;;;;14.80;99.90;;;;;;6058193;29;20289;-80
2021/07/30 01:02:53;;;;;;;;;;;14.70;99.90;;;;;;6073552;29;19911;-79
2021/07/30 01:05:53;;;;;;;;;;;14.80;99.90;;;;;;6078968;29;20324;-79
2021/07/30 01:08:54;;;;;;;;;;;14.30;99.90;;;;;;6161672;28;19929;-79
2021/07/30 01:11:54;;;;;;;;;;;14.80;99.90;;;;;;6140228;28;20014;-79
2021/07/30 01:14:55;;;;;;;;;;;14.80;99.90;;;;;;6083263;29;19912;-79
2021/07/30 01:17:55;;;;;;;;;;;14.70;99.90;;;;;;6177934;28;19912;-79
2021/07/30 01:20:59;;;;;;;;;;;14.70;99.90;;;;;;6178642;28;19918;-80
2021/07/30 01:23:59;;;;;;;;;;;14.70;99.90;;;;;;6157258;28;19911;-79
2021/07/30 01:27:00;;;;;;;;;;;14.50;99.90;;;;;;6073068;29;19911;-79
2021/07/30 01:30:00;;;;;;;;;;;14.60;99.90;;;;;;6073672;29;19934;-78
2021/07/30 01:33:01;;;;;;;;;;;14.70;99.90;;;;;;6073990;29;19919;-79
2021/07/30 01:36:01;;;;;;;;;;;14.80;99.90;;;;;;6087975;29;19911;-79
2021/07/30 01:39:02;;;;;;;;;;;14.80;99.90;;;;;;6177649;28;19922;-79
2021/07/30 01:42:02;;;;;;;;;;;14.80;99.90;;;;;;6089243;29;20238;-79
2021/07/30 01:45:04;;;;;;;;;;;14.70;99.90;;;;;;6086819;28;20368;-79
2021/07/30 01:48:04;;;;;;;;;;;14.70;99.90;;;;;;6074645;29;19919;-80
2021/07/30 01:51:05;;;;;;;;;;;14.50;99.90;;;;;;6146772;28;19911;-80
2021/07/30 01:54:06;;;;;;;;;;;14.60;99.90;;;;;;6076223;28;19911;-79
2021/07/30 01:57:07;;;;;;;;;;;14.50;99.90;;;;;;6057127;29;19908;-80
2021/07/30 02:00:08;;;;;;;;;;;14.70;99.90;;;;;;6087210;29;19911;-80
2021/07/30 02:03:08;;;;;;;;;;;14.70;99.90;;;;;;6177301;28;19943;-80
2021/07/30 02:06:09;;;;;;;;;;;14.70;99.90;;;;;;6177694;28;19953;-80
2021/07/30 02:09:09;;;;;;;;;;;14.70;99.90;;;;;;6094706;29;19919;-79
2021/07/30 02:12:10;;;;;;;;;;;14.60;99.90;;;;;;6095638;29;20346;-79
2021/07/30 02:15:10;;;;;;;;;;;14.50;99.90;;;;;;6096261;29;19926;-79
2021/07/30 02:18:11;;;;;;;;;;;14.50;99.90;;;;;;6078720;29;20014;-79
2021/07/30 02:21:11;;;;;;;;;;;14.40;99.90;;;;;;6073759;29;19916;-79
2021/07/30 02:24:12;;;;;;;;;;;14.40;99.90;;;;;;6072135;29;19915;-78
2021/07/30 02:27:12;;;;;;;;;;;14.40;99.90;;;;;;6093044;29;19914;-80
2021/07/30 02:30:13;;;;;;;;;;;14.30;99.90;;;;;;6095492;29;19903;-80
2021/07/30 02:33:13;;;;;;;;;;;14.20;99.90;;;;;;6095613;29;19921;-79
2021/07/30 02:36:14;;;;;;;;;;;14.20;99.90;;;;;;6177159;28;19911;-79
2021/07/30 02:39:15;;;;;;;;;;;14.20;99.90;;;;;;6085527;29;20054;-80
2021/07/30 02:42:15;;;;;;;;;;;14.10;99.90;;;;;;6089894;29;19907;-79
2021/07/30 02:45:16;;;;;;;;;;;14.00;99.90;;;;;;6095492;29;19918;-79
2021/07/30 02:48:16;;;;;;;;;;;14.10;99.90;;;;;;6177208;28;19910;-80
2021/07/30 02:51:18;;;;;;;;;;;14.00;99.90;;;;;;6176875;28;19903;-79
2021/07/30 02:54:18;;;;;;;;;;;14.10;99.90;;;;;;6056078;29;19970;-79
2021/07/30 02:57:18;;;;;;;;;;;14.00;99.90;;;;;;6071565;29;20346;-79
2021/07/30 03:00:19;;;;;;;;;;;14.00;99.90;;;;;;6055977;29;19990;-79
2021/07/30 03:03:19;;;;;;;;;;;14.00;99.90;;;;;;6077920;29;19907;-79
2021/07/30 03:06:20;;;;;;;;;;;14.00;99.90;;;;;;6093794;29;19911;-80
2021/07/30 03:09:20;;;;;;;;;;;13.90;99.90;;;;;;6159875;28;19919;-79
2021/07/30 03:12:21;;;;;;;;;;;14.30;99.90;;;;;;6094940;29;20426;-79
2021/07/30 03:15:21;;;;;;;;;;;13.90;99.90;;;;;;6074906;29;19915;-80
2021/07/30 03:18:22;;;;;;;;;;;13.90;99.90;;;;;;6071473;29;19942;-79
2021/07/30 03:21:22;;;;;;;;;;;13.90;99.90;;;;;;6071569;29;19907;-79
2021/07/30 03:24:23;;;;;;;;;;;14.00;99.90;;;;;;6071482;29;19911;-79
2021/07/30 03:27:24;;;;;;;;;;;14.10;99.90;;;;;;6071796;29;19950;-80
2021/07/30 03:30:24;;;;;;;;;;;14.00;99.90;;;;;;6074789;29;19954;-79
2021/07/30 03:33:25;;;;;;;;;;;13.90;99.90;;;;;;6076456;29;19911;-79
2021/07/30 03:36:25;;;;;;;;;;;13.80;99.90;;;;;;6075060;29;20011;-79
2021/07/30 03:39:26;;;;;;;;;;;13.90;99.90;;;;;;6075197;28;19914;-79
2021/07/30 03:42:27;;;;;;;;;;;13.80;99.90;;;;;;6075333;29;19911;-79
2021/07/30 03:45:27;;;;;;;;;;;13.80;99.90;;;;;;6075171;29;19904;-80
2021/07/30 03:48:28;;;;;;;;;;;13.90;99.90;;;;;;6074970;29;19908;-79
2021/07/30 03:51:28;;;;;;;;;;;13.90;99.90;;;;;;6075921;29;20343;-79
2021/07/30 03:54:29;;;;;;;;;;;14.00;99.90;;;;;;6074674;29;19912;-79
2021/07/30 03:57:30;;;;;;;;;;;13.80;99.90;;;;;;6059344;29;19911;-79
2021/07/30 04:00:30;;;;;;;;;;;13.80;99.90;;;;;;6075299;29;20325;-79
2021/07/30 04:03:31;;;;;;;;;;;13.80;99.90;;;;;;6074809;29;20001;-79
2021/07/30 04:06:31;;;;;;;;;;;13.80;99.90;;;;;;6059004;29;19958;-79
2021/07/30 04:09:32;;;;;;;;;;;13.80;99.90;;;;;;6074243;29;19928;-78
2021/07/30 04:12:32;;;;;;;;;;;13.90;99.90;;;;;;6075945;29;19973;-79
2021/07/30 04:15:33;;;;;;;;;;;13.80;99.90;;;;;;6074768;29;19919;-80
2021/07/30 04:18:34;;;;;;;;;;;13.80;99.90;;;;;;6075920;29;19907;-78
2021/07/30 04:21:35;;;;;;;;;;;13.90;99.90;;;;;;6074237;29;20277;-80
2021/07/30 04:24:35;;;;;;;;;;;14.00;99.90;;;;;;6074489;29;19912;-78
2021/07/30 04:27:36;;;;;;;;;;;14.00;99.90;;;;;;6078169;29;20002;-79
2021/07/30 04:30:36;;;;;;;;;;;13.90;99.90;;;;;;6074037;29;19911;-79
2021/07/30 04:33:37;;;;;;;;;;;14.40;99.90;;;;;;6074550;29;19912;-80
2021/07/30 04:36:38;;;;;;;;;;;14.80;99.90;;;;;;6075415;28;19974;-81
2021/07/30 04:39:38;;;;;;;;;;;15.10;99.90;;;;;;6085121;28;19903;-80
2021/07/30 04:42:38;;;;;;;;;;;15.30;99.90;;;;;;6096397;29;19911;-81
2021/07/30 04:45:39;;;;;;;;;;;15.50;99.90;;;;;;6178707;28;20257;-80
2021/07/30 04:48:40;;;;;;;;;;;15.90;99.90;;;;;;6162398;28;19993;-79
2021/07/30 04:51:40;;;;;;;;;;;15.90;99.90;;;;;;6097756;29;19903;-79
2021/07/30 04:54:41;;;;;;;;;;;16.20;99.90;;;;;;6094283;28;20021;-80
2021/07/30 04:57:45;;;;;;;;;;;16.20;99.90;;;;;;6075665;28;20392;-92
2021/07/30 05:00:45;;;;;;;;;;;16.10;99.90;;;;;;6139835;28;19912;-84
2021/07/30 05:03:46;;;;;;;;;;;16.10;99.90;;;;;;6061788;29;19946;-84
2021/07/30 05:06:46;;;;;;;;;;;16.20;99.90;;;;;;6155865;28;19911;-81
2021/07/30 05:09:47;;;;;;;;;;;16.60;99.90;;;;;;6167820;28;19915;-86
2021/07/30 05:12:47;;;;;;;;;;;17.00;99.90;;;;;;6160247;28;19923;-85
2021/07/30 05:15:48;;;;;;;;;;;17.40;99.90;;;;;;6067859;28;20262;-85
2021/07/30 05:18:48;;;;;;;;;;;17.60;99.90;;;;;;6060876;29;20345;-84
2021/07/30 05:21:49;;;;;;;;;;;17.90;99.90;;;;;;6155549;28;19958;-84
2021/07/30 05:24:49;;;;;;;;;;;17.90;99.90;;;;;;6076865;29;19907;-84
2021/07/30 05:27:50;;;;;;;;;;;17.80;99.90;;;;;;6148890;28;20346;-82
2021/07/30 05:30:51;;;;;;;;;;;18.10;99.90;;;;;;6074226;29;19919;-82
2021/07/30 05:34:01;;;;;;;;;;;18.20;99.90;;;;;;6088533;28;20261;-92
2021/07/30 05:37:02;;;;;;;;;;;18.40;99.90;;;;;;6146421;28;19907;-88
2021/07/30 05:40:03;;;;;;;;;;;18.80;99.90;;;;;;6071728;28;19918;-80
2021/07/30 05:43:03;;;;;;;;;;;18.90;99.90;;;;;;6071917;28;19929;-81
2021/07/30 05:46:04;;;;;;;;;;;19.30;99.90;;;;;;6072819;29;19910;-81
2021/07/30 05:49:06;;;;;;;;;;;19.70;99.90;;;;;;6072919;29;20318;-81
2021/07/30 05:52:06;;;;;;;;;;;19.90;99.90;;;;;;6073818;29;19966;-81
2021/07/30 05:55:07;;;;;;;;;;;20.40;99.90;;;;;;6076694;29;19911;-80
2021/07/30 05:58:07;;;;;;;;;;;20.70;99.90;;;;;;6167848;28;20412;-80
2021/07/30 06:01:11;;;;;;;;;;;20.50;99.90;;;;;;6074951;29;19911;-80
2021/07/30 06:04:12;;;;;;;;;;;21.50;98.40;;;;;;6056931;29;19930;-80
2021/07/30 06:07:12;;;;;;;;;;;21.80;98.10;;;;;;6092984;29;20305;-80
2021/07/30 06:10:13;;;;;;;;;;;21.90;98.00;;;;;;6085773;29;19920;-81
2021/07/30 06:13:13;;;;;;;;;;;22.40;98.50;;;;;;6081063;29;20021;-81
2021/07/30 06:16:14;;;;;;;;;;;22.80;98.00;;;;;;6074297;28;20289;-81
2021/07/30 06:19:14;;;;;;;;;;;23.10;97.50;;;;;;6074346;29;19915;-81
2021/07/30 06:22:15;;;;;;;;;;;23.40;97.20;;;;;;6072126;29;19943;-81
2021/07/30 06:25:15;;;;;;;;;;;23.50;96.10;;;;;;6075112;29;20294;-81
2021/07/30 06:28:16;;;;;;;;;;;23.70;95.00;;;;;;6148423;28;19912;-81
2021/07/30 06:31:16;;;;;;;;;;;24.10;95.80;;;;;;6078519;29;19911;-80
2021/07/30 06:34:17;;;;;;;;;;;24.10;93.60;;;;;;6176600;28;19915;-80
2021/07/30 06:37:17;;;;;;;;;;;24.60;92.50;;;;;;6088361;29;20648;-81
2021/07/30 06:40:18;;;;;;;;;;;24.80;91.80;;;;;;6072990;29;19918;-81
2021/07/30 06:43:18;;;;;;;;;;;24.50;92.70;;;;;;6062798;29;19946;-82
2021/07/30 06:46:19;;;;;;;;;;;24.60;92.70;;;;;;6082861;29;20049;-81
2021/07/30 06:49:19;;;;;;;;;;;24.40;92.40;;;;;;6161424;28;19903;-80
2021/07/30 06:52:20;;;;;;;;;;;24.60;92.60;;;;;;6071668;29;19919;-81
2021/07/30 06:55:20;;;;;;;;;;;24.70;92.30;;;;;;6055758;29;19903;-81
2021/07/30 06:58:21;;;;;;;;;;;24.90;92.90;;;;;;6072617;29;19958;-81
2021/07/30 07:01:21;;;;;;;;;;;25.60;91.70;;;;;;6081921;29;19907;-82
2021/07/30 07:04:22;;;;;;;;;;;26.10;91.30;;;;;;6056921;29;20013;-81
2021/07/30 07:07:22;;;;;;;;;;;27.00;89.60;;;;;;6166920;28;19907;-84
2021/07/30 07:10:23;;;;;;;;;;;27.60;85.30;;;;;;6078928;28;19934;-80
2021/07/30 07:13:23;;;;;;;;;;;28.10;85.10;;;;;;6075503;29;20319;-79
2021/07/30 07:16:24;;;;;;;;;;;28.10;82.30;;;;;;6076300;29;19903;-79
2021/07/30 07:19:25;;;;;;;;;;;27.90;83.00;;;;;;6059949;29;20357;-80
2021/07/30 07:22:26;;;;;;;;;;;28.10;83.40;;;;;;6080940;28;19911;-81
2021/07/30 07:25:26;;;;;;;;;;;27.80;83.90;;;;;;6076995;29;19922;-79
2021/07/30 07:28:27;;;;;;;;;;;27.50;84.00;;;;;;6076363;29;19903;-79
2021/07/30 07:31:28;;;;;;;;;;;27.10;82.80;;;;;;6074875;28;19918;-79
2021/07/30 07:34:28;;;;;;;;;;;27.40;84.60;;;;;;6076271;29;19966;-79
2021/07/30 07:37:29;;;;;;;;;;;27.20;81.50;;;;;;6090632;29;20009;-79
2021/07/30 07:40:29;;;;;;;;;;;27.60;86.30;;;;;;6162075;28;19927;-79
2021/07/30 07:43:30;;;;;;;;;;;28.40;79.80;;;;;;6076099;29;19999;-79
2021/07/30 07:46:30;;;;;;;;;;;28.40;78.50;;;;;;6093214;29;19949;-79
2021/07/30 07:49:31;;;;;;;;;;;28.40;76.80;;;;;;6084598;29;19915;-79
2021/07/30 07:52:33;;;;;;;;;;;28.40;76.30;;;;;;6083327;28;19961;-79
2021/07/30 07:55:33;;;;;;;;;;;28.90;74.60;;;;;;6076772;28;19910;-79
2021/07/30 07:58:34;;;;;;;;;;;29.50;75.20;;;;;;6086529;29;20337;-79
2021/07/30 08:01:34;;;;;;;;;;;29.80;73.20;;;;;;6179528;28;19913;-79
2021/07/30 08:04:35;;;;;;;;;;;29.80;72.30;;;;;;6083096;29;19911;-79
2021/07/30 08:07:35;;;;;;;;;;;29.40;69.30;;;;;;6180039;28;19907;-79
2021/07/30 08:10:36;;;;;;;;;;;29.00;70.80;;;;;;6092259;29;20435;-79
2021/07/30 08:13:36;;;;;;;;;;;28.90;73.90;;;;;;6098048;29;19911;-79
2021/07/30 08:16:37;;;;;;;;;;;29.20;72.20;;;;;;6175049;28;20418;-79
2021/07/30 08:19:38;;;;;;;;;;;29.60;72.10;;;;;;6092105;29;19977;-79
2021/07/30 08:22:39;;;;;;;;;;;30.40;70.70;;;;;;6086956;28;20285;-79
2021/07/30 08:25:40;;;;;;;;;;;30.70;68.40;;;;;;6097769;29;20053;-80
2021/07/30 08:28:40;;;;;;;;;;;31.40;66.80;;;;;;6091166;29;19903;-79
2021/07/30 08:31:41;;;;;;;;;;;31.80;64.50;;;;;;6160314;28;19912;-79
2021/07/30 08:34:41;;;;;;;;;;;32.00;60.50;;;;;;6088295;29;20197;-79
2021/07/30 08:37:42;;;;;;;;;;;31.70;64.30;;;;;;6171664;28;20034;-79
2021/07/30 08:40:42;;;;;;;;;;;32.00;63.20;;;;;;6075399;29;19950;-79
2021/07/30 08:43:43;;;;;;;;;;;32.30;64.40;;;;;;6062403;28;19916;-78
2021/07/30 08:46:43;;;;;;;;;;;31.90;64.60;;;;;;6078880;29;19926;-79
2021/07/30 08:49:44;;;;;;;;;;;32.20;61.70;;;;;;6163640;28;19908;-79
2021/07/30 08:52:44;;;;;;;;;;;32.80;64.80;;;;;;6074438;29;20412;-79
2021/07/30 08:55:45;;;;;;;;;;;32.80;61.30;;;;;;6073575;29;19946;-79
2021/07/30 08:58:45;;;;;;;;;;;32.40;60.80;;;;;;6074568;29;19957;-79
2021/07/30 09:01:51;;;;;;;;;;;31.80;61.70;;;;;;6074733;29;20235;-80
2021/07/30 09:04:51;;;;;;;;;;;31.90;62.40;;;;;;6074208;29;20443;-79
2021/07/30 09:07:52;;;;;;;;;;;31.70;62.50;;;;;;6139432;28;19958;-79
2021/07/30 09:10:52;;;;;;;;;;;31.30;64.30;;;;;;6107375;29;19941;-80
2021/07/30 09:13:53;;;;;;;;;;;31.60;62.00;;;;;;6140169;28;20482;-80
2021/07/30 09:16:53;;;;;;;;;;;31.40;64.90;;;;;;6074195;29;19919;-79
2021/07/30 09:20:03;;;;;;;;;;;31.10;65.30;;;;;;6074189;29;19990;-79
2021/07/30 09:23:04;;;;;;;;;;;30.80;65.70;;;;;;6074105;29;19911;-79
2021/07/30 09:26:04;;;;;;;;;;;30.50;66.20;;;;;;6082105;28;20357;-79
2021/07/30 09:29:21;;;;;;;;;;;30.40;68.30;;;;;;6106299;29;19923;-79
2021/07/30 09:32:22;;;;;;;;;;;30.10;68.00;;;;;;6143813;28;20354;-79
2021/07/30 09:35:22;;;;;;;;;;;30.40;70.20;;;;;;6074299;29;20002;-80
2021/07/30 09:38:23;;;;;;;;;;;30.70;69.40;;;;;;6072417;29;19919;-79
2021/07/30 09:41:23;;;;;;;;;;;31.10;68.30;;;;;;6072555;29;19946;-79
2021/07/30 09:44:24;;;;;;;;;;;31.60;68.30;;;;;;6074611;29;20285;-80
2021/07/30 09:47:25;;;;;;;;;;;31.80;67.90;;;;;;6074009;29;19911;-79
2021/07/30 09:50:27;;;;;;;;;;;31.80;66.90;;;;;;6059277;29;19954;-79
2021/07/30 09:53:28;;;;;;;;;;;32.00;68.00;;;;;;6159979;28;19918;-79
2021/07/30 09:56:28;;;;;;;;;;;32.20;66.80;;;;;;6161246;28;19915;-79
2021/07/30 09:59:30;;;;;;;;;;;32.60;67.10;;;;;;6163320;28;19922;-80
2021/07/30 10:02:31;;;;;;;;;;;32.10;66.20;;;;;;6089666;29;19915;-80
2021/07/30 10:05:31;;;;;;;;;;;32.00;66.40;;;;;;6176870;28;20365;-80
2021/07/30 10:08:32;;;;;;;;;;;31.50;66.90;;;;;;6177238;28;19926;-79
2021/07/30 10:11:38;;;;;;;;;;;31.40;68.20;;;;;;6177069;28;19942;-78
2021/07/30 10:14:39;;;;;;;;;;;31.00;68.50;;;;;;6173457;28;19911;-80
2021/07/30 10:17:43;;;;;;;;;;;30.70;70.90;;;;;;6172667;28;20278;-80
2021/07/30 10:20:44;;;;;;;;;;;30.80;71.30;;;;;;6091279;29;19914;-80
2021/07/30 10:23:45;;;;;;;;;;;30.90;71.40;;;;;;6159201;28;19912;-79
2021/07/30 10:26:46;;;;;;;;;;;30.90;71.60;;;;;;6073451;29;19911;-80
2021/07/30 10:30:02;;;;;;;;;;;30.60;71.20;;;;;;6078051;29;19903;-80
2021/07/30 10:33:03;;;;;;;;;;;30.50;70.70;;;;;;6089452;28;19965;-80
2021/07/30 10:36:04;;;;;;;;;;;29.90;72.70;;;;;;6088525;29;19938;-80
2021/07/30 10:39:06;;;;;;;;;;;28.90;73.80;;;;;;6073583;29;19994;-80
2021/07/30 10:42:07;;;;;;;;;;;29.40;75.90;;;;;;6075585;29;19915;-79
2021/07/30 10:45:19;;;;;;;;;;;29.30;76.00;;;;;;6097141;29;20369;-79
2021/07/30 10:48:23;;;;;;;;;;;29.90;75.40;;;;;;6163410;28;19911;-79
2021/07/30 10:51:24;;;;;;;;;;;30.40;74.30;;;;;;6099152;29;19911;-80
2021/07/30 10:54:45;;;;;;;;;;;30.80;74.20;;;;;;6179250;28;20263;-80
2021/07/30 10:57:45;;;;;;;;;;;31.40;74.40;;;;;;6079619;28;19910;-81
2021/07/30 11:00:55;;;;;;;;;;;32.00;72.70;;;;;;6077205;29;19912;-80
2021/07/30 11:03:58;;;;;;;;;;;32.60;71.70;;;;;;6059995;29;19950;-81
2021/07/30 11:07:00;;;;;;;;;;;32.80;70.90;;;;;;6079774;28;19903;-80
2021/07/30 11:10:11;;;;;;;;;;;33.00;67.30;;;;;;6075258;28;19920;-80
2021/07/30 11:13:12;;;;;;;;;;;32.80;65.50;;;;;;6076602;29;20369;-80
2021/07/30 11:16:13;;;;;;;;;;;32.80;67.80;;;;;;6059989;28;19994;-79
2021/07/30 11:19:14;;;;;;;;;;;32.90;68.10;;;;;;6086324;29;19915;-80
2021/07/30 11:22:18;;;;;;;;;;;33.00;66.10;;;;;;6165079;28;20014;-80
2021/07/30 11:25:19;;;;;;;;;;;32.90;66.70;;;;;;6075530;28;19907;-80
2021/07/30 11:28:19;;;;;;;;;;;32.70;68.00;;;;;;6075806;28;19974;-80
2021/07/30 11:31:19;;;;;;;;;;;32.90;69.90;;;;;;6061622;28;19911;-80
2021/07/30 11:34:23;;;;;;;;;;;32.80;67.00;;;;;;6076880;29;19918;-87
2021/07/30 11:37:24;;;;;;;;;;;32.30;67.30;;;;;;6071055;29;19911;-80
2021/07/30 11:40:24;;;;;;;;;;;32.30;67.70;;;;;;6179726;28;19907;-80
2021/07/30 11:43:25;;;;;;;;;;;31.90;67.30;;;;;;6172759;28;20472;-80
2021/07/30 11:46:26;;;;;;;;;;;31.70;68.40;;;;;;6075585;29;19966;-80
2021/07/30 11:49:27;;;;;;;;;;;31.80;70.60;;;;;;6162250;28;19919;-79
2021/07/30 11:52:28;;;;;;;;;;;31.90;65.80;;;;;;6080347;28;20006;-80
2021/07/30 11:55:28;;;;;;;;;;;31.80;67.70;;;;;;6074972;28;19982;-80
2021/07/30 11:58:29;;;;;;;;;;;31.30;66.00;;;;;;6098814;28;19911;-83
2021/07/30 12:01:30;;;;;;;;;;;31.30;70.40;;;;;;6179324;28;20244;-80
2021/07/30 12:04:33;;;;;;;;;;;31.20;67.40;;;;;;6075935;28;19903;-81
2021/07/30 12:07:35;;;;;;;;;;;31.10;68.60;;;;;;6075237;28;19908;-80
2021/07/30 12:10:37;;;;;;;;;;;30.70;68.80;;;;;;6059199;28;20410;-81
2021/07/30 12:13:37;;;;;;;;;;;30.50;70.40;;;;;;6073462;28;19925;-89
2021/07/30 12:16:40;;;;;;;;;;;30.40;72.00;;;;;;6162577;28;19903;-80
2021/07/30 12:19:40;;;;;;;;;;;30.60;68.30;;;;;;6087328;28;19915;-80
2021/07/30 12:22:44;;;;;;;;;;;30.70;69.20;;;;;;6149168;28;19916;-81
2021/07/30 12:25:56;;;;;;;;;;;30.50;69.40;;;;;;6077169;29;19908;-80
2021/07/30 12:28:56;;;;;;;;;;;30.20;69.50;;;;;;6073948;29;19919;-80
2021/07/30 12:32:16;;;;;;;;;;;29.90;71.20;;;;;;6145847;28;19916;-80
2021/07/30 12:35:18;;;;;;;;;;;30.10;71.10;;;;;;6073639;29;19954;-80
2021/07/30 12:38:20;;;;;;;;;;;30.20;71.20;;;;;;6075633;29;19915;-90
2021/07/30 12:41:21;;;;;;;;;;;30.10;73.00;;;;;;6058357;29;19911;-79
2021/07/30 12:44:23;;;;;;;;;;;30.10;71.20;;;;;;6073940;29;20342;-80
2021/07/30 12:47:23;;;;;;;;;;;30.20;71.70;;;;;;6079822;29;19910;-87
2021/07/30 12:50:31;;;;;;;;;;;29.20;74.20;;;;;;6138945;28;19915;-80
2021/07/30 12:53:31;;;;;;;;;;;30.10;72.30;;;;;;6073118;29;19958;-80
2021/07/30 12:56:51;;;;;;;;;;;30.10;72.60;;;;;;6068962;29;19915;-80
2021/07/30 12:59:55;;;;;;;;;;;30.10;71.10;;;;;;6095710;29;20434;-80
2021/07/30 13:02:55;;;;;;;;;;;29.90;71.00;;;;;;6096205;29;19908;-80
2021/07/30 13:05:58;;;;;;;;;;;30.20;74.40;;;;;;6097014;29;20435;-80
2021/07/30 13:08:58;;;;;;;;;;;30.10;73.50;;;;;;6160206;28;19962;-80
2021/07/30 13:11:59;;;;;;;;;;;30.20;70.60;;;;;;6075187;28;20404;-80
2021/07/30 13:14:59;;;;;;;;;;;30.20;74.60;;;;;;6074072;29;19912;-80
2021/07/30 13:18:00;;;;;;;;;;;30.10;73.40;;;;;;6074858;29;19903;-81
2021/07/30 13:24:39;;;;;;;;;;;31.00;74.60;;;;;;6087726;29;20269;-87
2021/07/30 13:27:49;;;;;;;;;;;30.90;77.00;;;;;;6056698;28;19918;-87
2021/07/30 13:30:52;;;;;;;;;;;32.50;76.50;;;;;;6068342;28;20254;-81
2021/07/30 13:33:52;;;;;;;;;;;31.90;76.80;;;;;;6072747;29;20372;-80
2021/07/30 13:36:53;;;;;;;;;;;31.00;75.40;;;;;;6073935;29;19958;-81
2021/07/30 13:39:53;;;;;;;;;;;31.10;73.60;;;;;;6090600;29;20253;-81
2021/07/30 13:42:54;;;;;;;;;;;31.00;71.40;;;;;;6096382;29;19918;-81
2021/07/30 13:45:54;;;;;;;;;;;31.10;71.30;;;;;;6092700;29;19982;-81
2021/07/30 13:48:55;;;;;;;;;;;30.80;69.90;;;;;;6078777;29;20345;-80
2021/07/30 13:51:55;;;;;;;;;;;30.60;72.30;;;;;;6082676;28;19915;-80
2021/07/30 13:54:56;;;;;;;;;;;30.50;73.80;;;;;;6073905;29;20355;-81
2021/07/30 13:57:56;;;;;;;;;;;29.90;74.10;;;;;;6073511;28;19914;-81
2021/07/30 14:00:57;;;;;;;;;;;29.50;73.90;;;;;;6072132;29;20321;-80
2021/07/30 14:03:57;;;;;;;;;;;29.20;75.60;;;;;;6074913;29;19962;-80
2021/07/30 14:06:58;;;;;;;;;;;29.00;76.60;;;;;;6094454;29;20346;-81
2021/07/30 14:09:58;;;;;;;;;;;28.80;76.60;;;;;;6094220;29;19970;-81
2021/07/30 14:12:59;;;;;;;;;;;28.40;75.80;;;;;;6094563;29;19919;-81
2021/07/30 14:15:59;;;;;;;;;;;28.00;75.60;;;;;;6083139;29;19911;-80
2021/07/30 14:19:00;;;;;;;;;;;27.60;78.20;;;;;;6073398;29;20629;-81
2021/07/30 14:22:01;;;;;;;;;;;27.40;78.80;;;;;;6075881;29;19946;-81
2021/07/30 14:25:02;;;;;;;;;;;27.10;79.80;;;;;;6080038;29;19942;-80
2021/07/30 14:28:02;;;;;;;;;;;26.90;81.40;;;;;;6071589;29;19915;-81
2021/07/30 14:31:03;;;;;;;;;;;26.70;82.00;;;;;;6072524;29;19919;-80
2021/07/30 14:34:03;;;;;;;;;;;26.60;83.70;;;;;;6089422;29;19911;-81
2021/07/30 14:37:04;;;;;;;;;;;26.40;83.70;;;;;;6090853;28;19949;-80
2021/07/30 14:40:05;;;;;;;;;;;26.40;84.80;;;;;;6073457;29;19904;-81
2021/07/30 14:43:06;;;;;;;;;;;26.20;88.30;;;;;;6095016;29;20369;-81
2021/07/30 14:46:06;;;;;;;;;;;26.40;90.00;;;;;;6087136;29;19910;-81
2021/07/30 14:49:07;;;;;;;;;;;26.50;90.70;;;;;;6079996;29;20261;-80
2021/07/30 14:52:07;;;;;;;;;;;26.30;91.00;;;;;;6056039;29;19917;-80
2021/07/30 14:55:08;;;;;;;;;;;26.30;91.90;;;;;;6090849;29;20026;-81
2021/07/30 14:58:08;;;;;;;;;;;26.00;92.70;;;;;;6157079;28;20257;-81
2021/07/30 15:01:09;;;;;;;;;;;25.70;94.20;;;;;;6072511;29;19908;-81
2021/07/30 15:04:09;;;;;;;;;;;25.50;93.90;;;;;;6081250;29;19937;-80
2021/07/30 15:07:11;;;;;;;;;;;25.50;92.80;;;;;;6176418;28;19907;-81
2021/07/30 15:10:11;;;;;;;;;;;25.50;94.00;;;;;;6095191;29;20014;-81
2021/07/30 15:13:12;;;;;;;;;;;25.50;93.70;;;;;;6164373;28;19927;-81
2021/07/30 15:16:13;;;;;;;;;;;25.20;93.30;;;;;;6071558;29;19907;-80
2021/07/30 15:19:13;;;;;;;;;;;25.00;93.60;;;;;;6081628;29;20344;-80
2021/07/30 15:22:14;;;;;;;;;;;24.90;94.30;;;;;;6152730;28;19903;-82
2021/07/30 15:25:14;;;;;;;;;;;24.80;94.50;;;;;;6142228;28;19912;-86
2021/07/30 15:28:15;;;;;;;;;;;24.60;93.70;;;;;;6148351;28;20365;-87
2021/07/30 15:31:15;;;;;;;;;;;24.90;94.20;;;;;;6083610;29;19904;-86
2021/07/30 15:34:16;;;;;;;;;;;23.90;94.60;;;;;;6154761;28;19926;-86
2021/07/30 15:37:16;;;;;;;;;;;24.00;95.90;;;;;;6161400;28;19919;-87
2021/07/30 15:40:17;;;;;;;;;;;23.90;95.90;;;;;;6151616;28;19914;-84
2021/07/30 15:43:18;;;;;;;;;;;24.00;96.10;;;;;;6079064;29;19918;-84
2021/07/30 15:46:19;;;;;;;;;;;24.20;95.50;;;;;;6161319;28;20318;-82
2021/07/30 15:49:19;;;;;;;;;;;24.50;95.60;;;;;;6177920;28;19913;-83
2021/07/30 15:52:21;;;;;;;;;;;24.30;95.70;;;;;;6077018;28;19915;-85
2021/07/30 15:55:22;;;;;;;;;;;24.30;94.90;;;;;;6075958;28;20293;-82
2021/07/30 15:58:22;;;;;;;;;;;24.50;95.50;;;;;;6148041;28;19919;-86
2021/07/30 16:01:23;;;;;;;;;;;24.60;94.80;;;;;;6077030;29;19916;-82
2021/07/30 16:04:23;;;;;;;;;;;24.60;94.80;;;;;;6082470;28;19903;-83
2021/07/30 16:07:24;;;;;;;;;;;24.70;94.90;;;;;;6058433;29;19919;-83
2021/07/30 16:10:25;;;;;;;;;;;24.60;94.80;;;;;;6074495;28;20384;-86
2021/07/30 16:13:25;;;;;;;;;;;24.70;94.70;;;;;;6079870;29;19919;-85
2021/07/30 16:16:26;;;;;;;;;;;24.90;94.10;;;;;;6154241;28;19904;-86
2021/07/30 16:19:26;;;;;;;;;;;24.60;93.10;;;;;;6067649;29;19911;-84
2021/07/30 16:22:27;;;;;;;;;;;24.90;93.10;;;;;;6081344;29;19908;-84
2021/07/30 16:25:27;;;;;;;;;;;24.80;92.50;;;;;;6074379;29;19911;-84
2021/07/30 16:28:27;;;;;;;;;;;24.20;92.30;;;;;;6073163;29;19907;-83
2021/07/30 16:31:28;;;;;;;;;;;24.80;92.30;;;;;;6078797;29;19994;-83
2021/07/30 16:34:42;;;;;;;;;;;24.40;91.60;;;;;;6161928;28;19911;-89
2021/07/30 16:37:43;;;;;;;;;;;24.30;91.40;;;;;;6142771;28;20010;-84
2021/07/30 16:40:43;;;;;;;;;;;24.30;92.00;;;;;;6077242;29;20407;-84
2021/07/30 16:43:44;;;;;;;;;;;24.10;90.80;;;;;;6062097;29;19922;-80
2021/07/30 16:46:44;;;;;;;;;;;24.20;90.80;;;;;;6088968;29;19903;-80
2021/07/30 16:49:45;;;;;;;;;;;23.90;91.30;;;;;;6057868;29;19977;-82
2021/07/30 16:52:45;;;;;;;;;;;23.80;91.00;;;;;;6075048;29;19911;-79
2021/07/30 16:55:46;;;;;;;;;;;23.80;91.20;;;;;;6075574;29;19918;-81
2021/07/30 16:58:47;;;;;;;;;;;23.70;91.90;;;;;;6073751;29;20243;-83
2021/07/30 17:01:48;;;;;;;;;;;23.70;92.00;;;;;;6058127;28;19966;-81
2021/07/30 17:04:48;;;;;;;;;;;23.70;92.00;;;;;;6088110;29;19914;-82
2021/07/30 17:07:51;;;;;;;;;;;23.60;92.10;;;;;;6093200;29;19903;-82
2021/07/30 17:10:52;;;;;;;;;;;23.60;92.60;;;;;;6058030;29;20261;-82
2021/07/30 17:13:52;;;;;;;;;;;23.50;92.60;;;;;;6073684;29;19978;-81
2021/07/30 17:16:53;;;;;;;;;;;23.40;92.40;;;;;;6074361;29;19911;-80
2021/07/30 17:19:53;;;;;;;;;;;23.40;92.60;;;;;;6173086;28;19920;-81
2021/07/30 17:22:54;;;;;;;;;;;23.40;93.00;;;;;;6095631;29;19958;-81
2021/07/30 17:25:54;;;;;;;;;;;23.00;93.30;;;;;;6161711;28;19915;-79
2021/07/30 17:28:55;;;;;;;;;;;23.40;94.50;;;;;;6076577;29;19911;-82
2021/07/30 17:31:55;;;;;;;;;;;23.40;94.10;;;;;;6077561;28;20004;-81
2021/07/30 17:34:56;;;;;;;;;;;23.40;94.50;;;;;;6080278;29;19963;-81
2021/07/30 17:37:56;;;;;;;;;;;23.20;94.50;;;;;;6091316;29;19910;-81